Pagina principale
METAR-TAF:

METAR-TAF

Aeroporti :

Reims, Francia

latitudine: 49-12-31N, longitudine: 004-09-24E, altezza: 95 m

Osservazione

Il bollettino è stato emesso 15 minuti fa, alle 09:30 UTC
Vento 4 kt da ovest/sud-ovest, variando fra sud-ovest e ovest/nord-ovest
Temperature 15°C
Umidità 59%
Pressione 1009 hPa
Visibilità 10 km o più
Poco nuvoloso ad un'altezza di 2700 ft
Nubi sparse ad un'altezza di 4900 ft
Cielo coperto ad un'altezza di 6600 ft

METAR: LFQA 070930Z AUTO 25004KT 220V300 9999 FEW027 SCT049 OVC066 15/07 Q1009

Ora: 11:45 (09:45 UTC)


TAF: mancante

Osservazioni e previsioni meteorologiche di più di 4000 aeroporti (messaggi METAR e TAF).

Le stazioni disponibili sono rappresentate dai dischi gialli e rossi sulla carta.

Puntare il mouse per vedere il nome della stazione.

Clicca sopra per visualizzare le osservazioni e previsioni meteorologiche.

Per cambiare la mappa : fare clic sui pulsanti verdi con una croce nera per ingrandire, il pulsante verde con un trattino per diminuire, o sulla freccia verde per le mappe adiacenti.


METAR-TAF: